createdAt,value
2023-09-12T00:01:24.521Z,101222.19
2023-09-12T00:03:52.289Z,101218.47
2023-09-12T00:06:19.059Z,101217.28
2023-09-12T00:08:46.753Z,101217.44
2023-09-12T00:11:13.466Z,101218.69
2023-09-12T00:13:41.421Z,101223.41
2023-09-12T00:16:09.829Z,101225.06
2023-09-12T00:18:36.521Z,101230.53
2023-09-12T00:21:04.355Z,101229.38
2023-09-12T00:23:32.564Z,101238.56
2023-09-12T00:25:59.528Z,101235.88
2023-09-12T00:28:26.326Z,101236.63
2023-09-12T00:30:54.868Z,101240.25
2023-09-12T00:33:22.603Z,101241.81
2023-09-12T00:35:49.269Z,101245.91
2023-09-12T00:38:15.902Z,101246.94
2023-09-12T00:40:43.667Z,101250.50
2023-09-12T00:43:10.335Z,101251.13
2023-09-12T00:45:37.018Z,101255.72
2023-09-12T00:48:06.962Z,101255.69
2023-09-12T00:50:34.733Z,101242.22
2023-09-12T00:53:05.123Z,101256.56
2023-09-12T00:55:33.881Z,101255.56
2023-09-12T00:58:00.962Z,101254.56
2023-09-12T01:00:28.753Z,101259.81
2023-09-12T01:02:55.696Z,101261.78
2023-09-12T01:05:23.682Z,101264.75
2023-09-12T01:07:51.409Z,101264.63
2023-09-12T01:10:18.298Z,101268.59
2023-09-12T01:12:45.468Z,101254.13
2023-09-12T01:15:13.213Z,101266.19
2023-09-12T01:17:40.704Z,101263.19
2023-09-12T01:20:10.154Z,101272.81
2023-09-12T01:23:01.772Z,101267.28
2023-09-12T01:25:28.312Z,101271.66
2023-09-12T01:27:57.433Z,101269.84
2023-09-12T01:30:27.394Z,101275.75
2023-09-12T01:32:54.859Z,101268.31
2023-09-12T01:35:21.470Z,101276.84
2023-09-12T01:37:49.329Z,101281.38
2023-09-12T01:40:16.019Z,101277.41
2023-09-12T01:42:47.625Z,101288.31
2023-09-12T01:45:21.158Z,101277.53
2023-09-12T01:47:52.537Z,101285.47
2023-09-12T01:50:21.365Z,101285.16
2023-09-12T01:52:48.164Z,101282.06
2023-09-12T01:55:17.644Z,101276.38
2023-09-12T01:57:44.242Z,101289.56
2023-09-12T02:00:13.489Z,101291.69
2023-09-12T02:02:41.195Z,101282.91
2023-09-12T02:05:16.805Z,101271.16
2023-09-12T02:07:44.572Z,101287.06
2023-09-12T02:10:11.390Z,101296.88
2023-09-12T02:12:39.791Z,101302.66
2023-09-12T02:15:06.802Z,101299.84
2023-09-12T02:17:33.519Z,101306.59
2023-09-12T02:20:01.249Z,101316.03
2023-09-12T02:22:27.940Z,101303.56
2023-09-12T02:24:55.565Z,101310.66
2023-09-12T02:27:22.199Z,101304.41
2023-09-12T02:29:49.839Z,101312.94
2023-09-12T02:32:17.438Z,101314.63
2023-09-12T02:34:44.098Z,101315.78
2023-09-12T02:37:11.742Z,101312.53
2023-09-12T02:39:38.313Z,101319.19
2023-09-12T02:42:07.273Z,101318.63
2023-09-12T02:44:33.900Z,101317.91
2023-09-12T02:47:00.501Z,101317.34
2023-09-12T02:49:28.131Z,101320.03
2023-09-12T02:51:55.727Z,101311.84
2023-09-12T02:54:22.309Z,101314.78
2023-09-12T02:56:49.965Z,101313.66
2023-09-12T02:59:16.519Z,101309.00
2023-09-12T03:01:44.188Z,101320.88
2023-09-12T03:04:10.868Z,101318.78
2023-09-12T03:06:38.539Z,101324.84
2023-09-12T03:09:05.147Z,101326.56
2023-09-12T03:11:32.749Z,101321.88
2023-09-12T03:13:59.299Z,101321.00
2023-09-12T03:16:25.885Z,101310.25
2023-09-12T03:18:53.693Z,101326.09
2023-09-12T03:21:20.348Z,101336.72
2023-09-12T03:23:47.986Z,101335.28
2023-09-12T03:26:15.600Z,101332.75
2023-09-12T03:28:42.594Z,101330.06
2023-09-12T03:31:15.701Z,101342.66
2023-09-12T03:33:44.021Z,101343.09
2023-09-12T03:36:10.873Z,101345.38
2023-09-12T03:38:38.570Z,101347.75
2023-09-12T03:41:05.129Z,101345.91
2023-09-12T03:43:32.015Z,101345.78
2023-09-12T03:45:59.719Z,101348.31
2023-09-12T03:48:27.713Z,101351.88
2023-09-12T03:50:55.436Z,101347.19
2023-09-12T03:53:22.004Z,101340.97
2023-09-12T03:55:49.703Z,101340.97
2023-09-12T03:58:16.273Z,101345.34
2023-09-12T04:00:42.898Z,101343.34
2023-09-12T04:03:10.710Z,101342.75
2023-09-12T04:05:37.369Z,101341.06
2023-09-12T04:08:06.248Z,101348.84
2023-09-12T04:10:32.654Z,101345.31
2023-09-12T04:13:00.538Z,101342.91
2023-09-12T04:15:27.193Z,101341.22
2023-09-12T04:17:53.802Z,101342.75
2023-09-12T04:20:21.458Z,101348.16
2023-09-12T04:22:49.175Z,101332.72
2023-09-12T04:25:17.858Z,101343.50
2023-09-12T04:27:44.436Z,101344.59
2023-09-12T04:30:12.525Z,101332.03
2023-09-12T04:32:39.230Z,101343.91
2023-09-12T04:35:07.341Z,101345.56
2023-09-12T04:37:33.914Z,101327.47
2023-09-12T04:40:02.386Z,101348.84
2023-09-12T04:42:30.038Z,101349.69
2023-09-12T04:44:56.676Z,101349.84
2023-09-12T04:47:23.258Z,101349.72
2023-09-12T04:49:51.014Z,101346.03
2023-09-12T04:52:17.663Z,101345.47
2023-09-12T04:54:44.282Z,101358.34
2023-09-12T04:57:12.083Z,101356.41
2023-09-12T04:59:38.666Z,101368.00
2023-09-12T05:02:06.280Z,101371.16
2023-09-12T05:04:32.953Z,101367.19
2023-09-12T05:07:00.696Z,101379.50
2023-09-12T05:09:27.276Z,101377.66
2023-09-12T05:11:54.929Z,101378.81
2023-09-12T05:14:21.514Z,101375.25
2023-09-12T05:16:48.065Z,101368.75
2023-09-12T05:19:15.697Z,101374.69
2023-09-12T05:21:42.294Z,101385.16
2023-09-12T05:24:10.158Z,101377.66
2023-09-12T05:26:36.794Z,101381.34
2023-09-12T05:29:03.390Z,101386.56
2023-09-12T05:31:31.187Z,101391.94
2023-09-12T05:33:57.803Z,101383.47
2023-09-12T05:36:25.528Z,101394.38
2023-09-12T05:38:52.089Z,101397.63
2023-09-12T05:41:18.655Z,101395.94
2023-09-12T05:43:46.247Z,101393.34
2023-09-12T05:46:12.831Z,101400.56
2023-09-12T05:48:40.692Z,101404.53
2023-09-12T05:51:08.624Z,101408.22
2023-09-12T05:53:35.220Z,101404.66
2023-09-12T05:56:02.834Z,101406.38
2023-09-12T05:58:29.418Z,101415.84
2023-09-12T06:00:56.014Z,101415.16
2023-09-12T06:03:23.852Z,101418.81
2023-09-12T06:05:50.506Z,101413.44
2023-09-12T06:08:17.109Z,101412.72
2023-09-12T06:10:44.799Z,101412.44
2023-09-12T06:13:13.157Z,101422.09
2023-09-12T06:15:41.259Z,101425.47
2023-09-12T06:18:08.015Z,101418.47
2023-09-12T06:20:35.742Z,101434.09
2023-09-12T06:23:02.341Z,101430.94
2023-09-12T06:25:28.962Z,101442.53
2023-09-12T06:27:56.654Z,101442.53
2023-09-12T06:30:23.238Z,101448.19
2023-09-12T06:32:50.956Z,101448.91
2023-09-12T06:35:17.750Z,101447.91
2023-09-12T06:37:45.214Z,101453.56
2023-09-12T06:40:13.027Z,101456.25
2023-09-12T06:42:40.715Z,101458.09
2023-09-12T06:45:07.744Z,101468.84
2023-09-12T06:47:35.477Z,101464.16
2023-09-12T06:50:03.207Z,101468.28
2023-09-12T06:52:31.014Z,101471.53
2023-09-12T06:54:57.579Z,101468.13
2023-09-12T06:57:24.166Z,101469.13
2023-09-12T06:59:51.860Z,101482.03
2023-09-12T07:02:18.567Z,101486.28
2023-09-12T07:04:46.251Z,101484.56
2023-09-12T07:07:12.829Z,101489.81
2023-09-12T07:09:39.413Z,101491.78
2023-09-12T07:12:07.470Z,101498.63
2023-09-12T07:14:34.094Z,101491.09
2023-09-12T07:17:01.700Z,101489.25
2023-09-12T07:19:28.714Z,101499.84
2023-09-12T07:21:55.309Z,101495.16
2023-09-12T07:24:26.629Z,101501.53
2023-09-12T07:26:54.292Z,101505.91
2023-09-12T07:29:20.925Z,101507.03
2023-09-12T07:31:47.565Z,101510.72
2023-09-12T07:34:15.222Z,101500.75
2023-09-12T07:36:41.890Z,101513.19
2023-09-12T07:39:08.477Z,101512.94
2023-09-12T07:41:36.110Z,101517.44
2023-09-12T07:44:02.652Z,101527.50
2023-09-12T07:46:30.398Z,101511.06
2023-09-12T07:48:57.096Z,101517.84
2023-09-12T07:51:24.220Z,101522.38
2023-09-12T07:53:52.074Z,101526.47
2023-09-12T07:56:18.630Z,101529.16
2023-09-12T07:58:45.181Z,101535.56
2023-09-12T08:01:12.839Z,101543.47
2023-09-12T08:03:41.444Z,101542.78
2023-09-12T08:06:10.263Z,101543.34
2023-09-12T08:08:36.929Z,101534.13
2023-09-12T08:11:03.517Z,101535.41
2023-09-12T08:13:33.246Z,101528.34
2023-09-12T08:15:59.882Z,101535.50
2023-09-12T08:18:31.226Z,101531.13
2023-09-12T08:20:59.654Z,101530.91
2023-09-12T08:23:26.379Z,101534.03
2023-09-12T08:25:54.057Z,101539.13
2023-09-12T08:28:20.696Z,101530.91
2023-09-12T08:30:48.392Z,101551.06
2023-09-12T08:33:15.151Z,101551.13
2023-09-12T08:35:41.857Z,101545.59
2023-09-12T08:38:09.590Z,101547.28
2023-09-12T08:40:36.789Z,101552.25
2023-09-12T08:43:04.848Z,101554.53
2023-09-12T08:45:31.437Z,101554.13
2023-09-12T08:48:00.887Z,101555.00
2023-09-12T08:50:28.645Z,101556.88
2023-09-12T08:53:05.502Z,101557.19
2023-09-12T08:55:35.636Z,101558.88
2023-09-12T08:58:04.135Z,101564.41
2023-09-12T09:00:31.126Z,101559.75
2023-09-12T09:02:59.578Z,101562.00
2023-09-12T09:05:28.456Z,101571.41
2023-09-12T09:07:56.321Z,101559.31
2023-09-12T09:10:41.955Z,101574.66
2023-09-12T09:13:13.821Z,101579.06
2023-09-12T09:15:41.606Z,101570.13
2023-09-12T09:18:08.309Z,101581.88
2023-09-12T09:20:36.706Z,101584.44
2023-09-12T09:23:06.884Z,101591.25
2023-09-12T09:25:36.198Z,101588.56
2023-09-12T09:28:04.386Z,101588.13
2023-09-12T09:30:45.957Z,101582.03
2023-09-12T09:33:14.913Z,101589.81
2023-09-12T09:35:42.941Z,101592.66
2023-09-12T09:38:10.277Z,101581.03
2023-09-12T09:40:38.874Z,101598.38
2023-09-12T09:43:05.453Z,101582.34
2023-09-12T09:45:33.941Z,101583.50
2023-09-12T09:48:07.897Z,101586.31
2023-09-12T09:50:35.784Z,101586.03
2023-09-12T09:53:02.665Z,101589.41
2023-09-12T09:55:30.325Z,101595.63
2023-09-12T09:57:56.956Z,101589.81
2023-09-12T10:00:24.143Z,101590.81
2023-09-12T10:02:53.433Z,101594.91
2023-09-12T10:05:22.378Z,101600.72
2023-09-12T10:07:51.729Z,101595.75
2023-09-12T10:10:19.448Z,101596.84
2023-09-12T10:12:58.875Z,101592.72
2023-09-12T10:15:30.247Z,101597.13
2023-09-12T10:18:14.365Z,101591.59
2023-09-12T10:20:54.849Z,101598.53
2023-09-12T10:23:45.873Z,101602.59
2023-09-12T10:26:15.180Z,101600.16
2023-09-12T10:28:43.516Z,101604.69
2023-09-12T10:31:14.056Z,101601.28
2023-09-12T10:33:42.442Z,101604.38
2023-09-12T10:36:10.749Z,101609.72
2023-09-12T10:38:44.293Z,101610.75
2023-09-12T10:41:14.545Z,101602.06
2023-09-12T10:43:42.579Z,101612.88
2023-09-12T10:46:11.362Z,101616.88
2023-09-12T10:48:38.338Z,101626.31
2023-09-12T10:51:06.419Z,101620.75
2023-09-12T10:53:33.282Z,101629.41
2023-09-12T10:56:21.973Z,101623.44
2023-09-12T10:59:04.174Z,101627.53
2023-09-12T11:01:32.976Z,101619.75
2023-09-12T11:04:00.036Z,101623.69
2023-09-12T11:06:31.052Z,101614.34
2023-09-12T11:09:16.875Z,101617.50
2023-09-12T11:11:45.176Z,101617.66
2023-09-12T11:14:12.793Z,101605.78
2023-09-12T11:16:40.804Z,101611.47
2023-09-12T11:19:20.456Z,101616.03
2023-09-12T11:21:51.707Z,101623.06
2023-09-12T11:24:19.547Z,101621.00
2023-09-12T11:27:04.532Z,101615.09
2023-09-12T11:29:39.005Z,101623.03
2023-09-12T11:32:08.051Z,101622.09
2023-09-12T11:34:41.769Z,101622.72
2023-09-12T11:37:09.599Z,101617.00
2023-09-12T11:39:40.601Z,101624.88
2023-09-12T11:42:13.174Z,101625.94
2023-09-12T11:44:40.942Z,101630.34
2023-09-12T11:47:10.909Z,101624.16
2023-09-12T11:49:42.962Z,101631.59
2023-09-12T11:52:16.512Z,101635.25
2023-09-12T11:54:45.616Z,101633.41
2023-09-12T11:57:14.420Z,101630.41
2023-09-12T11:59:41.563Z,101628.84
2023-09-12T12:02:12.300Z,101634.41
2023-09-12T12:04:40.063Z,101630.16
2023-09-12T12:07:08.192Z,101629.47
2023-09-12T12:09:36.156Z,101625.69
2023-09-12T12:12:10.168Z,101633.47
2023-09-12T12:14:37.903Z,101636.34
2023-09-12T12:17:12.049Z,101633.03
2023-09-12T12:19:40.970Z,101632.72
2023-09-12T12:22:07.988Z,101638.81
2023-09-12T12:24:39.720Z,101631.41
2023-09-12T12:27:07.456Z,101643.47
2023-09-12T12:29:35.047Z,101635.22
2023-09-12T12:32:07.044Z,101638.06
2023-09-12T12:35:32.153Z,101635.22
2023-09-12T12:37:33.642Z,101638.31
2023-09-12T12:40:02.212Z,101650.66
2023-09-12T12:42:47.958Z,101651.28
2023-09-12T12:45:21.273Z,101649.75
2023-09-12T12:47:52.918Z,101644.03
2023-09-12T12:50:19.504Z,101654.72
2023-09-12T12:52:50.238Z,101655.00
2023-09-12T12:55:17.420Z,101640.31
2023-09-12T12:57:46.311Z,101651.34
2023-09-12T13:00:16.215Z,101660.25
2023-09-12T13:02:44.323Z,101652.84
2023-09-12T13:05:26.794Z,101659.00
2023-09-12T13:07:54.782Z,101662.19
2023-09-12T13:10:22.538Z,101641.16
2023-09-12T13:12:50.236Z,101664.31
2023-09-12T13:15:18.714Z,101660.81
2023-09-12T13:17:45.958Z,101666.50
2023-09-12T13:20:13.704Z,101660.94
2023-09-12T13:22:40.286Z,101658.25
2023-09-12T13:25:07.822Z,101665.50
2023-09-12T13:27:35.486Z,101668.22
2023-09-12T13:30:02.354Z,101660.09
2023-09-12T13:32:28.930Z,101669.13
2023-09-12T13:34:56.707Z,101668.84
2023-09-12T13:37:23.326Z,101672.81
2023-09-12T13:39:51.012Z,101675.88
2023-09-12T13:42:17.967Z,101668.78
2023-09-12T13:44:45.553Z,101668.88
2023-09-12T13:47:12.088Z,101675.56
2023-09-12T13:49:38.657Z,101667.94
2023-09-12T13:52:06.526Z,101666.47
2023-09-12T13:54:33.183Z,101677.13
2023-09-12T13:56:59.783Z,101673.72
2023-09-12T13:59:33.104Z,101671.78
2023-09-12T14:02:05.033Z,101667.97
2023-09-12T14:04:33.037Z,101669.75
2023-09-12T14:07:00.353Z,101668.41
2023-09-12T14:09:27.192Z,101664.66
2023-09-12T14:11:54.990Z,101667.88
2023-09-12T14:14:21.606Z,101666.72
2023-09-12T14:16:49.289Z,101670.00
2023-09-12T14:19:20.940Z,101672.69
2023-09-12T14:21:49.255Z,101672.44
2023-09-12T14:24:19.135Z,101668.03
2023-09-12T14:26:49.868Z,101669.00
2023-09-12T14:29:17.630Z,101671.44
2023-09-12T14:31:44.931Z,101675.38
2023-09-12T14:34:12.563Z,101670.28
2023-09-12T14:36:39.228Z,101662.09
2023-09-12T14:39:06.861Z,101672.41
2023-09-12T14:41:33.503Z,101665.84
2023-09-12T14:44:00.096Z,101667.63
2023-09-12T14:46:27.983Z,101668.31
2023-09-12T14:49:02.033Z,101670.88
2023-09-12T14:51:33.219Z,101673.25
2023-09-12T14:54:01.933Z,101689.13
2023-09-12T14:56:28.609Z,101679.63
2023-09-12T14:58:56.288Z,101686.06
2023-09-12T15:01:23.092Z,101687.31
2023-09-12T15:03:50.881Z,101693.56
2023-09-12T15:06:19.514Z,101697.28
2023-09-12T15:08:46.424Z,101692.19
2023-09-12T15:11:15.075Z,101695.66
2023-09-12T15:13:43.086Z,101697.94
2023-09-12T15:16:10.183Z,101690.41
2023-09-12T15:18:37.941Z,101700.28
2023-09-12T15:21:04.639Z,101690.53
2023-09-12T15:23:31.207Z,101699.34
2023-09-12T15:25:58.897Z,101688.13
2023-09-12T15:28:26.501Z,101695.47
2023-09-12T15:30:53.186Z,101690.44
2023-09-12T15:33:22.125Z,101688.94
2023-09-12T15:35:48.752Z,101689.69
2023-09-12T15:38:15.302Z,101685.09
2023-09-12T15:40:42.931Z,101681.97
2023-09-12T15:43:22.735Z,101696.59
2023-09-12T15:45:51.617Z,101684.94
2023-09-12T15:48:19.884Z,101680.22
2023-09-12T15:50:47.095Z,101694.97
2023-09-12T15:53:13.761Z,101692.94
2023-09-12T15:55:41.340Z,101687.75
2023-09-12T15:58:08.983Z,101682.34
2023-09-12T16:00:35.598Z,101692.34
2023-09-12T16:03:03.476Z,101690.22
2023-09-12T16:05:30.066Z,101689.03
2023-09-12T16:07:57.722Z,101697.66
2023-09-12T16:10:24.311Z,101695.34
2023-09-12T16:12:51.996Z,101687.84
2023-09-12T16:15:20.514Z,101691.38
2023-09-12T16:17:47.111Z,101698.50
2023-09-12T16:20:14.750Z,101684.25
2023-09-12T16:22:41.964Z,101687.22
2023-09-12T16:25:11.258Z,101685.44
2023-09-12T16:27:37.988Z,101704.03
2023-09-12T16:30:07.341Z,101683.88
2023-09-12T16:32:33.962Z,101705.34
2023-09-12T16:35:00.630Z,101701.13
2023-09-12T16:37:28.306Z,101704.41
2023-09-12T16:39:54.936Z,101697.38
2023-09-12T16:42:21.508Z,101706.91
2023-09-12T16:44:49.111Z,101711.31
2023-09-12T16:47:15.686Z,101711.97
2023-09-12T16:49:43.287Z,101712.91
2023-09-12T16:52:09.884Z,101717.41
2023-09-12T16:54:38.821Z,101697.03
2023-09-12T16:57:08.534Z,101711.66
2023-09-12T16:59:35.135Z,101718.41
2023-09-12T17:02:02.786Z,101722.09
2023-09-12T17:04:29.418Z,101726.41
2023-09-12T17:06:57.129Z,101727.50
2023-09-12T17:09:23.712Z,101728.22
2023-09-12T17:11:50.276Z,101733.38
2023-09-12T17:14:17.871Z,101741.69
2023-09-12T17:16:44.432Z,101734.13
2023-09-12T17:19:12.099Z,101731.69
2023-09-12T17:21:38.940Z,101727.66
2023-09-12T17:24:06.995Z,101730.38
2023-09-12T17:26:33.571Z,101730.22
2023-09-12T17:29:00.149Z,101732.06
2023-09-12T17:31:28.316Z,101727.66
2023-09-12T17:33:54.914Z,101738.53
2023-09-12T17:36:21.572Z,101738.19
2023-09-12T17:38:49.174Z,101742.09
2023-09-12T17:41:16.816Z,101746.44
2023-09-12T17:43:43.583Z,101748.22
2023-09-12T17:46:12.209Z,101752.78
2023-09-12T17:48:38.875Z,101754.00
2023-09-12T17:51:05.506Z,101763.06
2023-09-12T17:53:33.113Z,101757.41
2023-09-12T17:56:00.743Z,101759.22
2023-09-12T17:58:27.322Z,101764.22
2023-09-12T18:01:01.872Z,101763.75
2023-09-12T18:03:31.829Z,101765.56
2023-09-12T18:06:00.331Z,101772.66
2023-09-12T18:08:26.975Z,101777.06
2023-09-12T18:10:53.512Z,101764.16
2023-09-12T18:13:21.116Z,101776.84
2023-09-12T18:15:48.830Z,101782.09
2023-09-12T18:18:15.438Z,101780.94
2023-09-12T18:20:42.107Z,101781.56
2023-09-12T18:23:09.768Z,101782.63
2023-09-12T18:25:36.290Z,101790.16
2023-09-12T18:28:04.039Z,101796.88
2023-09-12T18:30:30.727Z,101786.06
2023-09-12T18:32:57.313Z,101778.16
2023-09-12T18:35:25.991Z,101788.66
2023-09-12T18:37:54.823Z,101788.97
2023-09-12T18:40:21.479Z,101793.00
2023-09-12T18:42:49.186Z,101801.19
2023-09-12T18:45:17.097Z,101803.19
2023-09-12T18:47:43.785Z,101801.25
2023-09-12T18:50:10.648Z,101794.41
2023-09-12T18:52:53.791Z,101811.22
2023-09-12T18:55:21.715Z,101808.97
2023-09-12T18:57:49.449Z,101806.31
2023-09-12T19:00:16.283Z,101806.78
2023-09-12T19:02:43.370Z,101809.22
2023-09-12T19:05:11.818Z,101809.09
2023-09-12T19:07:38.587Z,101820.22
2023-09-12T19:10:06.711Z,101809.28
2023-09-12T19:12:33.429Z,101822.75
2023-09-12T19:15:00.101Z,101822.91
2023-09-12T19:17:29.790Z,101821.75
2023-09-12T19:19:56.395Z,101836.97
2023-09-12T19:22:24.084Z,101831.31
2023-09-12T19:24:50.738Z,101833.22
2023-09-12T19:27:18.467Z,101844.31
2023-09-12T19:29:54.137Z,101844.19
2023-09-12T19:32:20.741Z,101848.06
2023-09-12T19:34:47.365Z,101853.31
2023-09-12T19:37:15.063Z,101859.56
2023-09-12T19:39:41.870Z,101863.00
2023-09-12T19:42:09.983Z,101863.44
2023-09-12T19:44:36.616Z,101870.13
2023-09-12T19:47:03.431Z,101875.81
2023-09-12T19:49:33.117Z,101867.44
2023-09-12T19:51:59.836Z,101873.69
2023-09-12T19:54:26.476Z,101877.38
2023-09-12T19:56:54.136Z,101869.38
2023-09-12T19:59:21.781Z,101892.97
2023-09-12T20:01:49.509Z,101889.56
2023-09-12T20:04:16.468Z,101895.81
2023-09-12T20:06:43.146Z,101893.94
2023-09-12T20:09:10.826Z,101896.31
2023-09-12T20:11:40.923Z,101889.50
2023-09-12T20:14:11.894Z,101897.72
2023-09-12T20:16:39.327Z,101901.69
2023-09-12T20:19:06.033Z,101900.72
2023-09-12T20:21:34.609Z,101896.31
2023-09-12T20:24:02.069Z,101903.00
2023-09-12T20:26:29.760Z,101905.41
2023-09-12T20:28:56.364Z,101909.25
2023-09-12T20:31:24.339Z,101903.97
2023-09-12T20:33:51.281Z,101911.50
2023-09-12T20:36:18.949Z,101910.06
2023-09-12T20:38:49.621Z,101908.06
2023-09-12T20:41:18.426Z,101905.66
2023-09-12T20:43:46.403Z,101899.97
2023-09-12T20:46:13.303Z,101902.03
2023-09-12T20:48:41.169Z,101912.53
2023-09-12T20:51:12.024Z,101906.84
2023-09-12T20:53:39.366Z,101912.78
2023-09-12T20:56:07.166Z,101897.69
2023-09-12T20:58:33.877Z,101906.34
2023-09-12T21:01:01.676Z,101906.63
2023-09-12T21:03:29.629Z,101894.38
2023-09-12T21:05:56.370Z,101898.81
2023-09-12T21:08:24.080Z,101909.69
2023-09-12T21:10:50.676Z,101910.69
2023-09-12T21:13:17.309Z,101915.22
2023-09-12T21:15:45.373Z,101912.94
2023-09-12T21:18:12.160Z,101913.44
2023-09-12T21:20:39.871Z,101905.59
2023-09-12T21:23:07.547Z,101903.28
2023-09-12T21:25:34.142Z,101915.91
2023-09-12T21:28:01.971Z,101918.00
2023-09-12T21:30:28.781Z,101917.28
2023-09-12T21:32:56.560Z,101915.09
2023-09-12T21:35:23.243Z,101922.31
2023-09-12T21:37:50.913Z,101923.69
2023-09-12T21:40:17.712Z,101923.69
2023-09-12T21:42:44.876Z,101935.00
2023-09-12T21:45:13.187Z,101934.88
2023-09-12T21:47:40.288Z,101925.94
2023-09-12T21:50:07.344Z,101935.59
2023-09-12T21:52:35.419Z,101935.00
2023-09-12T21:55:02.442Z,101935.53
2023-09-12T21:57:29.140Z,101938.03
2023-09-12T21:59:56.833Z,101944.25
2023-09-12T22:02:23.564Z,101943.53
2023-09-12T22:04:51.333Z,101948.41
2023-09-12T22:07:17.957Z,101945.72
2023-09-12T22:09:45.828Z,101949.41
2023-09-12T22:12:12.477Z,101958.97
2023-09-12T22:14:39.075Z,101955.28
2023-09-12T22:17:06.746Z,101951.75
2023-09-12T22:19:35.390Z,101957.13
2023-09-12T22:22:02.179Z,101963.63
2023-09-12T22:24:29.905Z,101962.78
2023-09-12T22:26:56.531Z,101958.91
2023-09-12T22:29:24.190Z,101961.97
2023-09-12T22:31:51.957Z,101951.47
2023-09-12T22:34:18.788Z,101962.00
2023-09-12T22:36:46.569Z,101960.78
2023-09-12T22:39:14.234Z,101953.09
2023-09-12T22:41:40.831Z,101957.00
2023-09-12T22:44:07.452Z,101954.53
2023-09-12T22:46:35.228Z,101945.88
2023-09-12T22:49:01.953Z,101943.38
2023-09-12T22:51:29.642Z,101936.19
2023-09-12T22:53:56.250Z,101948.38
2023-09-12T22:56:23.958Z,101953.00
2023-09-12T22:58:50.581Z,101945.53
2023-09-12T23:01:17.207Z,101953.47
2023-09-12T23:03:45.308Z,101932.66
2023-09-12T23:06:12.134Z,101923.13
2023-09-12T23:08:39.803Z,101926.56
2023-09-12T23:11:06.525Z,101921.56
2023-09-12T23:13:33.123Z,101920.25
2023-09-12T23:16:01.200Z,101924.75
2023-09-12T23:18:27.872Z,101922.06
2023-09-12T23:20:54.521Z,101925.88
2023-09-12T23:23:22.137Z,101926.72
2023-09-12T23:25:48.748Z,101928.94
2023-09-12T23:28:16.486Z,101934.59
2023-09-12T23:30:43.152Z,101932.28
2023-09-12T23:33:09.950Z,101946.22
2023-09-12T23:35:37.701Z,101945.53
2023-09-12T23:38:04.508Z,101954.81
2023-09-12T23:40:32.231Z,101954.69
2023-09-12T23:42:58.892Z,101958.59
2023-09-12T23:45:26.641Z,101963.59
2023-09-12T23:47:54.012Z,101962.25
2023-09-12T23:50:20.748Z,101949.44
2023-09-12T23:52:48.392Z,101957.50
2023-09-12T23:55:15.051Z,101970.94
2023-09-12T23:57:41.709Z,101969.34
